Time;durP1;ratioP1;P1;durP2;ratioP2;P2;SDS_P1;SDS_P2;PMS_P1;PMS_P2;Temp;Humidity;BMP_temperature;BMP_pressure;BME280_temperature;BME280_humidity;BME280_pressure;Samples;Min_cycle;Max_cycle;Signal;HPM_P1;HPM_P2
2021/01/13 00:01:47;;;;;;;1999.90;999.90;;;3.20;99.90;;;;;;6249814;23;20046;-95
2021/01/13 00:05:03;;;;;;;1999.90;999.90;;;3.10;99.90;;;;;;6249081;23;20463;-96
2021/01/13 00:07:37;;;;;;;1999.90;999.90;;;3.10;99.90;;;;;;6236818;23;20024;-94
2021/01/13 00:10:21;;;;;;;1999.90;999.90;;;3.10;99.90;;;;;;6248747;23;20078;-95
2021/01/13 00:13:23;;;;;;;1999.90;999.90;;;3.10;99.90;;;;;;6248012;23;20030;-95
2021/01/13 00:16:05;;;;;;;1999.90;999.90;;;3.10;99.90;;;;;;6239658;23;20024;-95
2021/01/13 00:18:45;;;;;;;1999.90;999.90;;;3.10;99.90;;;;;;6248664;23;20082;-95
2021/01/13 00:21:23;;;;;;;1999.90;999.90;;;3.10;99.90;;;;;;6248509;23;20443;-95
2021/01/13 00:27:34;;;;;;;1999.90;999.90;;;3.10;99.90;;;;;;6243917;23;20027;-96
2021/01/13 00:30:33;;;;;;;1999.90;999.90;;;3.00;99.90;;;;;;6251184;23;20020;-96
2021/01/13 00:33:16;;;;;;;1999.90;999.90;;;3.00;99.90;;;;;;6251205;23;20099;-96
2021/01/13 00:36:29;;;;;;;1999.90;999.90;;;3.00;99.90;;;;;;6249238;23;20046;-95
2021/01/13 00:39:01;;;;;;;1999.90;999.90;;;2.90;99.90;;;;;;6234643;23;20016;-95
2021/01/13 00:41:45;;;;;;;1999.90;999.90;;;2.90;99.90;;;;;;6249453;23;20050;-95
2021/01/13 00:45:07;;;;;;;1999.90;999.90;;;2.90;99.90;;;;;;6263195;23;20024;-95
2021/01/13 00:48:19;;;;;;;1999.90;999.90;;;2.90;99.90;;;;;;6248759;23;20016;-95
2021/01/13 00:50:55;;;;;;;1999.90;999.90;;;2.90;99.90;;;;;;6248309;23;20039;-94
2021/01/13 00:57:09;;;;;;;;;;;2.90;99.90;;;;;;6251715;23;20138;-95
2021/01/13 01:03:16;;;;;;;1999.90;999.90;;;2.90;99.90;;;;;;6250356;23;20020;-95
2021/01/13 01:06:04;;;;;;;1999.90;999.90;;;3.00;99.90;;;;;;6236247;23;20024;-96
2021/01/13 01:08:40;;;;;;;1999.90;999.90;;;3.00;99.90;;;;;;6248748;23;20016;-95
2021/01/13 01:11:37;;;;;;;1999.90;999.90;;;3.00;99.90;;;;;;6248645;23;20047;-94
2021/01/13 01:14:25;;;;;;;1999.90;999.90;;;3.00;99.90;;;;;;6248757;23;20095;-95
2021/01/13 01:32:14;;;;;;;1999.90;999.90;;;3.00;99.90;;;;;;6231406;23;20334;-92
2021/01/13 01:34:49;;;;;;;1999.90;999.90;;;2.90;99.90;;;;;;6251649;23;20087;-93
2021/01/13 01:37:23;;;;;;;1999.90;999.90;;;2.90;99.90;;;;;;6263922;22;20001;-94
2021/01/13 01:39:50;;;;;;;;;;;2.90;99.90;;;;;;6274585;22;20019;-93
2021/01/13 01:42:23;;;;;;;1999.90;999.90;;;2.90;99.90;;;;;;6267752;22;19915;-94
2021/01/13 01:45:18;;;;;;;1999.90;999.90;;;2.90;99.90;;;;;;6249055;23;20078;-94
2021/01/13 01:48:30;;;;;;;1999.90;999.90;;;2.90;99.90;;;;;;6253605;23;20027;-94
2021/01/13 01:50:59;;;;;;;1999.90;999.90;;;2.80;99.90;;;;;;6249585;23;20052;-93
2021/01/13 02:01:31;;;;;;;1999.90;999.90;;;2.80;99.90;;;;;;6126514;23;20516;-94
2021/01/13 02:04:52;;;;;;;;;;;;;;;;;;;;;
2021/01/13 02:07:52;;;;;;;1999.90;999.90;;;2.80;99.90;;;;;;6201594;23;20351;-93
2021/01/13 02:10:33;;;;;;;1999.90;999.90;;;2.80;99.90;;;;;;6250083;23;20020;-94
2021/01/13 02:13:09;;;;;;;1999.90;999.90;;;2.80;99.90;;;;;;6248730;23;20020;-93
2021/01/13 02:15:44;;;;;;;1999.90;999.90;;;2.80;99.90;;;;;;6249206;23;20095;-93
2021/01/13 02:26:20;;;;;;;1999.90;999.90;;;2.80;99.90;;;;;;6175527;23;20358;-93
2021/01/13 02:29:37;;;;;;;1999.90;999.90;;;2.70;99.90;;;;;;6249895;23;20023;-94
2021/01/13 02:42:46;;;;;;;1999.90;999.90;;;2.70;99.90;;;;;;6220332;23;20452;-94
2021/01/13 02:45:26;;;;;;;1999.90;999.90;;;2.70;99.90;;;;;;6247262;23;20443;-95
2021/01/13 02:48:21;;;;;;;1999.90;999.90;;;2.70;99.90;;;;;;6247507;23;20067;-94
2021/01/13 02:51:06;;;;;;;1999.90;999.90;;;2.80;99.90;;;;;;6246737;23;20046;-94
2021/01/13 02:58:30;;;;;;;1999.90;999.90;;;2.90;99.90;;;;;;6067783;23;20034;-94
2021/01/13 03:01:21;;;;;;;1999.90;999.90;;;2.90;99.90;;;;;;6200823;23;20022;-94
2021/01/13 03:04:24;;;;;;;1999.90;999.90;;;2.90;99.90;;;;;;6247675;23;20066;-94
2021/01/13 03:06:59;;;;;;;1999.90;999.90;;;3.00;99.90;;;;;;6228576;23;20027;-95
2021/01/13 03:09:57;;;;;;;1999.90;999.90;;;3.00;99.90;;;;;;6247308;23;20040;-94
2021/01/13 03:12:50;;;;;;;1999.90;999.90;;;3.00;99.90;;;;;;6228153;23;20023;-94
2021/01/13 03:15:42;;;;;;;1999.90;999.90;;;3.10;99.90;;;;;;6246976;23;20340;-94
2021/01/13 03:18:26;;;;;;;1999.90;999.90;;;3.10;99.90;;;;;;6248325;23;20016;-94
2021/01/13 03:21:41;;;;;;;1999.90;999.90;;;3.10;99.90;;;;;;6249966;23;20091;-93
2021/01/13 03:24:38;;;;;;;1999.90;999.90;;;3.10;99.90;;;;;;6249689;23;20019;-93
2021/01/13 03:27:30;;;;;;;;;;;;;;;;;;;;;
2021/01/13 03:30:05;;;;;;;1999.90;999.90;;;3.10;99.90;;;;;;6248978;23;20016;-93
2021/01/13 03:36:04;;;;;;;1999.90;999.90;;;3.20;99.90;;;;;;6248673;23;20024;-96
2021/01/13 03:39:03;;;;;;;1999.90;999.90;;;3.10;99.90;;;;;;6249004;23;20431;-96
2021/01/13 03:42:25;;;;;;;1999.90;999.90;;;3.20;99.90;;;;;;6249628;23;20020;-96
2021/01/13 03:52:10;;;;;;;1999.90;999.90;;;3.30;99.90;;;;;;6156885;23;20017;-95
2021/01/13 03:55:03;;;;;;;1999.90;999.90;;;3.30;99.90;;;;;;6156956;23;20013;-95
2021/01/13 03:58:20;;;;;;;1999.90;999.90;;;3.30;99.90;;;;;;6156662;23;20025;-94
2021/01/13 04:05:05;;;;;;;1999.90;999.90;;;3.40;99.90;;;;;;6093177;23;19939;-95
2021/01/13 04:08:09;;;;;;;1999.90;999.90;;;3.40;99.90;;;;;;6249991;23;20016;-95
2021/01/13 04:15:02;;;;;;;1999.90;999.90;;;3.50;99.90;;;;;;6011372;23;20023;-95
2021/01/13 04:36:10;;;;;;;1999.90;999.90;;;3.40;99.90;;;;;;5874320;24;20025;-95
2021/01/13 04:38:53;;;;;;;1999.90;999.90;;;3.40;99.90;;;;;;5902168;23;20025;-94
2021/01/13 04:41:27;;;;;;;1999.90;999.90;;;3.40;99.90;;;;;;6013394;23;20095;-95
2021/01/13 04:47:32;;;;;;;1999.90;999.90;;;3.50;99.90;;;;;;6028523;23;20026;-94
2021/01/13 04:50:39;;;;;;;1999.90;999.90;;;3.50;99.90;;;;;;6111404;23;20122;-95
2021/01/13 04:53:26;;;;;;;1999.90;999.90;;;3.50;99.90;;;;;;6156948;23;20021;-95
2021/01/13 04:56:22;;;;;;;1999.90;999.90;;;3.60;99.90;;;;;;6156186;23;20018;-96
2021/01/13 04:59:22;;;;;;;1999.90;999.90;;;3.60;99.90;;;;;;6156804;23;20021;-94
2021/01/13 05:09:20;;;;;;;1999.90;999.90;;;3.60;99.90;;;;;;5956926;23;20027;-95
2021/01/13 05:13:04;;;;;;;1999.90;999.90;;;3.60;99.90;;;;;;5955841;24;20109;-96
2021/01/13 05:16:00;;;;;;;1999.90;999.90;;;3.70;99.90;;;;;;5956359;23;20017;-96
2021/01/13 05:19:15;;;;;;;1999.90;999.90;;;3.70;99.90;;;;;;5955482;24;20529;-95
2021/01/13 05:22:06;;;;;;;1999.90;999.90;;;3.70;99.90;;;;;;5879565;24;20026;-94
2021/01/13 05:25:04;;;;;;;1999.90;999.90;;;3.70;99.90;;;;;;5950837;24;20020;-95
2021/01/13 05:35:00;;;;;;;1999.90;999.90;;;3.70;99.90;;;;;;5846804;24;20093;-95
2021/01/13 05:38:07;;;;;;;1999.90;999.90;;;3.70;99.90;;;;;;5901586;24;20021;-94
2021/01/13 05:41:32;;;;;;;1999.90;999.90;;;3.70;99.90;;;;;;5922571;24;20429;-95
2021/01/13 05:44:15;;;;;;;1999.90;999.90;;;3.70;99.90;;;;;;6156758;23;20418;-95
2021/01/13 05:51:36;;;;;;;1999.90;999.90;;;3.70;99.90;;;;;;6156975;23;20085;-94
2021/01/13 05:54:19;;;;;;;1999.90;999.90;;;3.70;99.90;;;;;;6200583;23;20059;-95
2021/01/13 05:57:00;;;;;;;1999.90;999.90;;;3.70;99.90;;;;;;6248916;23;20339;-94
2021/01/13 05:59:37;;;;;;;1999.90;999.90;;;3.70;99.90;;;;;;6247894;23;20016;-95
2021/01/13 06:02:16;;;;;;;1999.90;999.90;;;3.70;99.90;;;;;;6248078;23;20016;-95
2021/01/13 06:05:11;;;;;;;1999.90;999.90;;;3.70;99.90;;;;;;6247922;23;20016;-95
2021/01/13 06:08:02;;;;;;;1999.90;999.90;;;3.70;99.90;;;;;;6232394;23;20095;-96
2021/01/13 06:10:55;;;;;;;1999.90;999.90;;;3.80;99.90;;;;;;6248170;23;20074;-96
2021/01/13 06:20:53;;;;;;;1999.90;999.90;;;3.70;99.90;;;;;;6202511;23;20015;-95
2021/01/13 06:23:26;;;;;;;1999.90;999.90;;;3.70;99.90;;;;;;6248769;23;20327;-94
2021/01/13 06:26:32;;;;;;;1999.90;999.90;;;3.70;99.90;;;;;;6247497;23;20023;-95
2021/01/13 06:30:08;;;;;;;1999.90;999.90;;;3.70;99.90;;;;;;6245339;23;20023;-95
2021/01/13 06:36:15;;;;;;;1999.90;999.90;;;3.70;99.90;;;;;;6244573;23;20038;-96
2021/01/13 06:41:45;;;;;;;1999.90;999.90;;;3.80;99.90;;;;;;6242426;23;20066;-94
2021/01/13 06:44:17;;;;;;;1999.90;999.90;;;3.70;99.90;;;;;;6248189;23;20012;-95
2021/01/13 06:47:11;;;;;;;1999.90;999.90;;;3.70;99.90;;;;;;6247478;23;20017;-95
2021/01/13 06:49:51;;;;;;;1999.90;999.90;;;3.70;99.90;;;;;;6247089;23;20024;-94
2021/01/13 06:52:34;;;;;;;1999.90;999.90;;;3.70;99.90;;;;;;6248887;23;20024;-94
2021/01/13 06:55:18;;;;;;;1999.90;999.90;;;3.70;99.90;;;;;;6250371;23;20024;-94
2021/01/13 06:57:52;;;;;;;1999.90;999.90;;;3.70;99.90;;;;;;6249365;23;20020;-95
2021/01/13 07:00:21;;;;;;;1999.90;999.90;;;3.60;99.90;;;;;;6249273;23;20020;-94
2021/01/13 07:02:52;;;;;;;1999.90;999.90;;;3.70;99.90;;;;;;6250711;23;20496;-94
2021/01/13 07:05:36;;;;;;;1999.90;999.90;;;3.70;99.90;;;;;;6248884;23;20023;-93
2021/01/13 07:08:17;;;;;;;1999.90;999.90;;;3.60;99.90;;;;;;6249638;23;20020;-94
2021/01/13 07:10:48;;;;;;;1999.90;999.90;;;3.60;99.90;;;;;;6248392;23;20300;-94
2021/01/13 07:13:21;;;;;;;1999.90;999.90;;;3.60;99.90;;;;;;6249496;23;20038;-94
2021/01/13 07:15:52;;;;;;;1999.90;999.90;;;3.60;99.90;;;;;;6249171;23;20012;-94
2021/01/13 07:18:23;;;;;;;1999.90;999.90;;;3.60;99.90;;;;;;6249456;23;20031;-95
2021/01/13 07:20:53;;;;;;;1999.90;999.90;;;3.70;99.90;;;;;;6249484;23;20347;-96
2021/01/13 07:23:20;;;;;;;1999.90;999.90;;;3.60;99.90;;;;;;6250261;23;20046;-96
2021/01/13 07:25:48;;;;;;;1999.90;999.90;;;3.60;99.90;;;;;;6249057;23;20012;-95
2021/01/13 07:28:36;;;;;;;1999.90;999.90;;;3.60;99.90;;;;;;6250182;23;20020;-96
2021/01/13 07:31:05;;;;;;;1999.90;999.90;;;3.60;99.90;;;;;;6249186;23;20091;-95
2021/01/13 07:33:40;;;;;;;1999.90;999.90;;;3.60;99.90;;;;;;6249320;23;20346;-96
2021/01/13 07:36:18;;;;;;;1999.90;999.90;;;3.60;99.90;;;;;;6250037;23;20012;-95
2021/01/13 07:38:56;;;;;;;1999.90;999.90;;;3.70;99.90;;;;;;6250271;23;20020;-95
2021/01/13 07:41:58;;;;;;;1999.90;999.90;;;3.70;99.90;;;;;;6249127;23;20324;-96
2021/01/13 07:44:53;;;;;;;1999.90;999.90;;;3.70;99.90;;;;;;6234385;23;20483;-96
2021/01/13 07:47:46;;;;;;;1999.90;999.90;;;3.70;99.90;;;;;;6251015;23;20066;-95
2021/01/13 07:50:18;;;;;;;1999.90;999.90;;;3.70;99.90;;;;;;6250044;23;20423;-95
2021/01/13 07:52:47;;;;;;;1999.90;999.90;;;3.70;99.90;;;;;;6249420;23;20024;-96
2021/01/13 07:55:31;;;;;;;1999.90;999.90;;;3.70;99.90;;;;;;6249100;23;20066;-96
2021/01/13 07:58:31;;;;;;;1999.90;999.90;;;3.70;99.90;;;;;;6186345;23;20030;-96
2021/01/13 08:12:56;;;;;;;1999.90;999.90;;;3.80;99.90;;;;;;6183389;23;20428;-94
2021/01/13 08:16:11;;;;;;;1999.90;999.90;;;3.80;99.90;;;;;;6199255;23;20443;-94
2021/01/13 08:19:15;;;;;;;1999.90;999.90;;;3.70;99.90;;;;;;6249676;23;20016;-94
2021/01/13 08:21:58;;;;;;;1999.90;999.90;;;3.80;99.90;;;;;;6249957;23;20107;-95
2021/01/13 08:24:37;;;;;;;1999.90;999.90;;;3.80;99.90;;;;;;6248947;23;20083;-93
2021/01/13 08:27:34;;;;;;;1999.90;999.90;;;3.80;99.90;;;;;;6250875;23;20035;-96
2021/01/13 08:30:28;;;;;;;1999.90;999.90;;;3.80;99.90;;;;;;6249152;23;20016;-94
2021/01/13 08:33:00;;;;;;;1999.90;999.90;;;3.80;99.90;;;;;;6249567;23;20070;-93
2021/01/13 08:35:36;;;;;;;1999.90;999.90;;;3.80;99.90;;;;;;6248882;23;20088;-94
2021/01/13 08:38:08;;;;;;;1999.90;999.90;;;3.80;99.90;;;;;;6249023;23;20020;-94
2021/01/13 08:40:49;;;;;;;1999.90;999.90;;;3.90;99.90;;;;;;6248159;23;20020;-93
2021/01/13 08:44:02;;;;;;;1999.90;999.90;;;3.90;99.90;;;;;;6247104;23;20051;-94
2021/01/13 08:47:15;;;;;;;1999.90;999.90;;;3.90;99.90;;;;;;6248347;23;20020;-94
2021/01/13 08:50:20;;;;;;;1999.90;999.90;;;3.90;99.90;;;;;;6248224;23;20024;-95
2021/01/13 08:52:49;;;;;;;1999.90;999.90;;;3.90;99.90;;;;;;6248537;23;20439;-94
2021/01/13 08:55:29;;;;;;;1999.90;999.90;;;4.00;99.90;;;;;;6248976;23;20017;-94
2021/01/13 08:58:07;;;;;;;1999.90;999.90;;;4.00;99.90;;;;;;6249481;23;20099;-94
2021/01/13 09:00:40;;;;;;;1999.90;999.90;;;4.00;99.90;;;;;;6249113;23;20025;-94
2021/01/13 09:03:36;;;;;;;1999.90;999.90;;;4.00;99.90;;;;;;6248029;23;20020;-95
2021/01/13 09:06:22;;;;;;;1999.90;999.90;;;4.10;99.90;;;;;;6250687;23;20433;-94
2021/01/13 09:08:51;;;;;;;1999.90;999.90;;;4.10;99.90;;;;;;6249601;23;20149;-94
2021/01/13 09:11:34;;;;;;;1999.90;999.90;;;4.10;99.90;;;;;;6249132;23;20048;-94
2021/01/13 09:14:20;;;;;;;1999.90;999.90;;;4.10;99.90;;;;;;6244447;23;20020;-94
2021/01/13 09:16:57;;;;;;;1999.90;999.90;;;4.20;99.90;;;;;;6248381;23;20023;-94
2021/01/13 09:19:43;;;;;;;1999.90;999.90;;;4.20;99.90;;;;;;6250202;23;20020;-95
2021/01/13 09:22:10;;;;;;;;;;;4.30;99.90;;;;;;6250181;23;20024;-95
2021/01/13 09:27:52;;;;;;;;;;;;;;;;;;;;;
2021/01/13 09:30:41;;;;;;;1999.90;999.90;;;4.30;99.90;;;;;;6250866;23;20044;-96
2021/01/13 09:33:21;;;;;;;1999.90;999.90;;;4.30;99.90;;;;;;6249160;23;20036;-93
2021/01/13 09:36:00;;;;;;;1999.90;999.90;;;4.40;99.90;;;;;;6248645;23;20016;-94
2021/01/13 09:38:30;;;;;;;1999.90;999.90;;;4.40;99.90;;;;;;6249645;23;20020;-93
2021/01/13 09:40:59;;;;;;;1999.90;999.90;;;4.40;99.90;;;;;;6247523;23;20028;-93
2021/01/13 09:43:35;;;;;;;1999.90;999.90;;;4.40;99.90;;;;;;6248056;23;20020;-94
2021/01/13 09:46:30;;;;;;;1999.90;999.90;;;4.40;99.90;;;;;;6250510;23;20074;-96
2021/01/13 09:49:10;;;;;;;1999.90;999.90;;;4.50;99.90;;;;;;6250537;23;20119;-93
2021/01/13 09:51:38;;;;;;;1999.90;999.90;;;4.50;99.90;;;;;;6248605;23;20027;-93
2021/01/13 09:54:10;;;;;;;1999.90;999.90;;;4.50;99.90;;;;;;6247600;23;20024;-93
2021/01/13 09:56:42;;;;;;;1999.90;999.90;;;4.60;99.90;;;;;;6247960;23;20012;-94
2021/01/13 09:59:12;;;;;;;1999.90;999.90;;;4.60;99.90;;;;;;6247911;23;20027;-95
2021/01/13 10:05:25;;;;;;;1999.90;999.90;;;4.60;99.90;;;;;;6263492;23;20027;-96
2021/01/13 10:07:54;;;;;;;1999.90;999.90;;;4.60;99.90;;;;;;6248855;23;20070;-95
2021/01/13 10:10:27;;;;;;;1999.90;999.90;;;4.60;99.90;;;;;;6248076;23;20017;-95
2021/01/13 10:13:04;;;;;;;1999.90;999.90;;;4.60;99.90;;;;;;6248145;23;20023;-94
2021/01/13 10:15:34;;;;;;;1999.90;999.90;;;4.70;99.90;;;;;;6248204;23;20027;-96
2021/01/13 10:18:09;;;;;;;1999.90;999.90;;;4.70;99.90;;;;;;6248493;23;20016;-93
2021/01/13 10:24:55;;;;;;;1999.90;999.90;;;4.80;99.90;;;;;;6161272;23;20021;-96
2021/01/13 10:27:58;;;;;;;1999.90;999.90;;;4.80;99.90;;;;;;6156736;23;20104;-94
2021/01/13 10:30:32;;;;;;;1999.90;999.90;;;4.90;99.90;;;;;;6161252;23;20017;-95
2021/01/13 10:40:20;;;;;;;1999.90;999.90;;;5.00;99.90;;;;;;6163362;22;20024;-93
2021/01/13 10:46:00;;;;;;;1999.90;999.90;;;5.00;99.90;;;;;;6126769;23;20073;-94
2021/01/13 10:48:45;;;;;;;1999.90;999.90;;;5.10;99.90;;;;;;6188223;23;20017;-94
2021/01/13 10:51:20;;;;;;;1999.90;999.90;;;5.10;99.90;;;;;;6191375;23;20020;-95
2021/01/13 10:53:53;;;;;;;1999.90;999.90;;;5.10;99.90;;;;;;6193763;23;20024;-96
2021/01/13 10:56:28;;;;;;;1999.90;999.90;;;5.20;99.90;;;;;;6191748;23;20094;-94
2021/01/13 10:59:02;;;;;;;1999.90;999.90;;;5.20;99.90;;;;;;6191290;23;20027;-96
2021/01/13 11:01:39;;;;;;;1999.90;999.90;;;5.20;99.90;;;;;;6190808;23;20337;-95
2021/01/13 11:04:57;;;;;;;1999.90;999.90;;;5.20;99.90;;;;;;6191620;23;20075;-95
2021/01/13 11:08:15;;;;;;;1999.90;999.90;;;5.30;99.90;;;;;;6206289;23;20020;-96
2021/01/13 11:11:06;;;;;;;1999.90;999.90;;;5.20;99.90;;;;;;6193695;23;20017;-95
2021/01/13 11:13:56;;;;;;;1999.90;999.90;;;5.20;99.90;;;;;;6188548;23;20017;-93
2021/01/13 11:16:27;;;;;;;1999.90;999.90;;;5.30;99.90;;;;;;6188321;23;20014;-95
2021/01/13 11:19:08;;;;;;;1999.90;999.90;;;5.30;99.90;;;;;;6187648;23;20028;-95
2021/01/13 11:21:41;;;;;;;1999.90;999.90;;;5.30;99.90;;;;;;6191062;23;20017;-92
2021/01/13 11:24:10;;;;;;;1999.90;999.90;;;5.30;99.90;;;;;;6187682;23;20072;-95
2021/01/13 11:26:44;;;;;;;1999.90;999.90;;;5.30;99.90;;;;;;6186537;23;20021;-94
2021/01/13 11:44:35;;;;;;;1999.90;999.90;;;5.40;99.90;;;;;;6053666;23;20017;-96
2021/01/13 11:47:26;;;;;;;1999.90;999.90;;;5.40;99.90;;;;;;6159768;23;20017;-94
2021/01/13 11:54:49;;;;;;;1999.90;999.90;;;5.30;99.90;;;;;;6118932;23;20122;-96
2021/01/13 11:57:31;;;;;;;1999.90;999.90;;;5.30;99.90;;;;;;6131567;23;20021;-94
2021/01/13 12:00:33;;;;;;;1999.90;999.90;;;5.40;99.90;;;;;;6189567;23;20028;-95
2021/01/13 12:03:09;;;;;;;1999.90;999.90;;;5.40;99.90;;;;;;6188812;23;20040;-94
2021/01/13 12:05:43;;;;;;;1999.90;999.90;;;5.40;99.90;;;;;;6188860;23;20075;-95
2021/01/13 12:08:15;;;;;;;1999.90;999.90;;;5.50;99.90;;;;;;6189100;23;20024;-95
2021/01/13 12:10:55;;;;;;;1999.90;999.90;;;5.60;99.90;;;;;;6188834;23;20017;-95
2021/01/13 12:13:39;;;;;;;1999.90;999.90;;;5.60;99.90;;;;;;6188940;23;20079;-95
2021/01/13 12:37:39;;;;;;;1999.90;999.90;;;5.60;99.90;;;;;;6225103;23;20028;-95
2021/01/13 13:16:50;;;;;;;1999.90;999.90;;;5.70;99.90;;;;;;6236770;23;20056;-96
2021/01/13 13:24:04;;;;;;;1999.90;999.90;;;5.70;99.90;;;;;;6046371;23;20026;-96
2021/01/13 13:26:51;;;;;;;1999.90;999.90;;;5.80;99.90;;;;;;6051448;23;20026;-96
2021/01/13 13:37:39;;;;;;;1999.90;999.90;;;5.80;99.90;;;;;;5806683;24;20114;-96
2021/01/13 14:13:20;;;;;;;1999.90;999.90;;;6.20;99.90;;;;;;6219177;23;20108;-95
2021/01/13 14:15:56;;;;;;;1999.90;999.90;;;6.30;99.90;;;;;;6145100;23;20044;-95
2021/01/13 14:18:34;;;;;;;1999.90;999.90;;;6.20;99.90;;;;;;6218962;23;20119;-94
2021/01/13 14:21:32;;;;;;;1999.90;999.90;;;6.20;99.90;;;;;;6224938;23;20021;-95
2021/01/13 14:24:39;;;;;;;1999.90;999.90;;;6.20;99.90;;;;;;6218811;23;20043;-96
2021/01/13 14:27:34;;;;;;;1999.90;999.90;;;6.20;99.90;;;;;;6218387;23;20020;-96
2021/01/13 14:44:49;;;;;;;1999.90;999.90;;;6.00;99.90;;;;;;6219518;23;20095;-94
2021/01/13 14:55:17;;;;;;;1999.90;999.90;;;5.80;99.90;;;;;;6214551;22;20020;-96
2021/01/13 14:57:51;;;;;;;1999.90;999.90;;;5.90;99.90;;;;;;6225980;23;20039;-96
2021/01/13 15:01:11;;;;;;;1999.90;999.90;;;5.80;99.90;;;;;;6231521;23;20091;-95
2021/01/13 15:03:48;;;;;;;1999.90;999.90;;;5.80;99.90;;;;;;6228353;23;20047;-94
2021/01/13 15:06:40;;;;;;;1999.90;999.90;;;5.80;99.90;;;;;;6225690;23;20036;-95
2021/01/13 15:09:37;;;;;;;1999.90;999.90;;;5.80;99.90;;;;;;6235209;23;20024;-95
2021/01/13 15:31:46;;;;;;;1999.90;999.90;;;5.60;99.90;;;;;;6130529;23;20025;-95
2021/01/13 15:34:20;;;;;;;1999.90;999.90;;;5.60;99.90;;;;;;6130074;23;20073;-95
2021/01/13 15:36:47;;;;;;;1999.90;999.90;;;5.50;99.90;;;;;;6129873;23;20445;-96
2021/01/13 15:39:17;;;;;;;1999.90;999.90;;;5.50;99.90;;;;;;6128878;23;20109;-96
2021/01/13 15:41:54;;;;;;;1999.90;999.90;;;5.50;99.90;;;;;;6129585;23;20109;-95
2021/01/13 15:44:46;;;;;;;1999.90;999.90;;;5.50;99.90;;;;;;6129055;23;20458;-95
2021/01/13 15:47:20;;;;;;;1999.90;999.90;;;5.50;99.90;;;;;;6129130;23;20014;-95
2021/01/13 15:50:30;;;;;;;1999.90;999.90;;;5.50;99.90;;;;;;6136057;23;20018;-96
2021/01/13 15:56:01;;;;;;;1999.90;999.90;;;5.50;99.90;;;;;;6134161;23;20014;-95
2021/01/13 15:58:38;;;;;;;1999.90;999.90;;;5.50;99.90;;;;;;6132193;23;20085;-96
2021/01/13 16:01:26;;;;;;;1999.90;999.90;;;5.40;99.90;;;;;;6131264;23;20026;-96
2021/01/13 16:03:55;;;;;;;1999.90;999.90;;;5.40;99.90;;;;;;6131437;23;20077;-96
2021/01/13 16:07:06;;;;;;;1999.90;999.90;;;5.40;99.90;;;;;;6134966;23;20014;-96
2021/01/13 16:09:40;;;;;;;1999.90;999.90;;;5.40;99.90;;;;;;6019065;23;20056;-95
2021/01/13 16:12:51;;;;;;;1999.90;999.90;;;5.40;99.90;;;;;;6022796;23;20035;-96
2021/01/13 16:15:27;;;;;;;1999.90;999.90;;;5.40;99.90;;;;;;6015033;23;20023;-96
2021/01/13 16:18:09;;;;;;;1999.90;999.90;;;5.40;99.90;;;;;;6088407;23;20060;-96
2021/01/13 16:27:33;;;;;;;1999.90;999.90;;;5.30;99.90;;;;;;6248910;23;20035;-94
2021/01/13 16:40:48;;;;;;;1999.90;999.90;;;5.30;99.90;;;;;;6240040;22;20032;-95
2021/01/13 16:44:32;;;;;;;1999.90;999.90;;;5.20;99.90;;;;;;6268808;23;20047;-96
2021/01/13 16:52:56;;;;;;;1999.90;999.90;;;5.20;99.90;;;;;;6238290;22;20047;-95
2021/01/13 16:55:26;;;;;;;1999.90;999.90;;;5.30;99.90;;;;;;6251307;23;20016;-95
2021/01/13 16:58:31;;;;;;;1999.90;999.90;;;5.30;99.90;;;;;;6249537;23;20031;-96
2021/01/13 17:01:18;;;;;;;;;;;;;;;;;;;;;
2021/01/13 17:03:52;;;;;;;1999.90;999.90;;;5.30;99.90;;;;;;6248263;23;20020;-95
2021/01/13 17:06:20;;;;;;;1999.90;999.90;;;5.20;99.90;;;;;;6249463;23;20296;-94
2021/01/13 17:09:04;;;;;;;1999.90;999.90;;;5.30;99.90;;;;;;6252565;23;20036;-95
2021/01/13 17:11:52;;;;;;;1999.90;999.90;;;5.30;99.90;;;;;;6249262;23;20016;-95
2021/01/13 17:14:29;;;;;;;1999.90;999.90;;;5.30;99.90;;;;;;6247963;23;20023;-95
2021/01/13 17:17:02;;;;;;;1999.90;999.90;;;5.30;99.90;;;;;;6248314;23;20050;-96
2021/01/13 17:19:46;;;;;;;1999.90;999.90;;;5.30;99.90;;;;;;6248459;23;20020;-96
2021/01/13 17:22:14;;;;;;;1999.90;999.90;;;5.30;99.90;;;;;;6248255;23;20019;-96
2021/01/13 17:24:50;;;;;;;1999.90;999.90;;;5.30;99.90;;;;;;6248393;23;20016;-95
2021/01/13 17:27:28;;;;;;;1999.90;999.90;;;5.30;99.90;;;;;;6250151;23;20023;-95
2021/01/13 17:30:10;;;;;;;1999.90;999.90;;;5.20;99.90;;;;;;6249787;23;20031;-95
2021/01/13 17:32:38;;;;;;;1999.90;999.90;;;5.20;99.90;;;;;;6249976;23;20047;-96
2021/01/13 17:35:07;;;;;;;1999.90;999.90;;;5.20;99.90;;;;;;6250340;23;20094;-95
2021/01/13 17:37:44;;;;;;;1999.90;999.90;;;5.20;99.90;;;;;;6250611;23;20016;-96
2021/01/13 17:40:19;;;;;;;1999.90;999.90;;;5.20;99.90;;;;;;6251810;23;20016;-96
2021/01/13 17:42:53;;;;;;;1999.90;999.90;;;5.20;99.90;;;;;;6251318;23;20024;-96
2021/01/13 17:45:46;;;;;;;;;;;;;;;;;;;;;
2021/01/13 17:48:17;;;;;;;;;;;5.20;99.90;;;;;;6251193;23;20428;-95
2021/01/13 17:50:50;;;;;;;1999.90;999.90;;;5.10;99.90;;;;;;6249736;23;19922;-95
2021/01/13 17:53:28;;;;;;;1999.90;999.90;;;5.20;99.90;;;;;;6248457;23;20070;-96
2021/01/13 17:56:15;;;;;;;1999.90;999.90;;;5.10;99.90;;;;;;6249897;23;20091;-96
2021/01/13 17:58:45;;;;;;;1999.90;999.90;;;5.10;99.90;;;;;;6250097;23;20016;-95
2021/01/13 18:01:14;;;;;;;1999.90;999.90;;;5.10;99.90;;;;;;6249351;23;20016;-96
2021/01/13 18:03:43;;;;;;;1999.90;999.90;;;5.10;99.90;;;;;;6247738;23;20351;-95
2021/01/13 18:06:17;;;;;;;1999.90;999.90;;;5.10;99.90;;;;;;6248863;23;20016;-95
2021/01/13 18:08:47;;;;;;;1999.90;999.90;;;5.10;99.90;;;;;;6248959;23;20016;-95
2021/01/13 18:11:17;;;;;;;1999.90;999.90;;;5.00;99.90;;;;;;6248316;23;20016;-96
2021/01/13 18:13:44;;;;;;;1999.90;999.90;;;5.00;99.90;;;;;;6248148;23;20023;-96
2021/01/13 18:16:13;;;;;;;1999.90;999.90;;;5.00;99.90;;;;;;6248383;23;20016;-96
2021/01/13 18:18:43;;;;;;;1999.90;999.90;;;5.00;99.90;;;;;;6248498;23;20332;-96
2021/01/13 18:21:12;;;;;;;1999.90;999.90;;;5.00;99.90;;;;;;6248347;23;20020;-95
2021/01/13 18:23:39;;;;;;;1999.90;999.90;;;5.00;99.90;;;;;;6247862;23;20073;-96
2021/01/13 18:26:10;;;;;;;1999.90;999.90;;;5.00;99.90;;;;;;6260853;23;20087;-96
2021/01/13 18:28:49;;;;;;;1999.90;999.90;;;5.00;99.90;;;;;;6262021;23;20079;-96
2021/01/13 18:31:21;;;;;;;1999.90;999.90;;;5.00;99.90;;;;;;6263881;23;20020;-96
2021/01/13 18:34:03;;;;;;;1999.90;999.90;;;5.00;99.90;;;;;;6264214;23;20046;-96
2021/01/13 18:36:42;;;;;;;1999.90;999.90;;;5.00;99.90;;;;;;6261942;23;20087;-96
2021/01/13 18:39:18;;;;;;;1999.90;999.90;;;5.00;99.90;;;;;;6262192;23;20020;-96
2021/01/13 18:41:52;;;;;;;1999.90;999.90;;;5.10;99.90;;;;;;6260850;23;20027;-96
2021/01/13 18:44:35;;;;;;;1999.90;999.90;;;5.10;99.90;;;;;;6261944;23;20016;-96
2021/01/13 18:47:15;;;;;;;1999.90;999.90;;;5.10;99.90;;;;;;6261613;23;20028;-96
2021/01/13 18:49:51;;;;;;;1999.90;999.90;;;5.10;99.90;;;;;;6262996;23;20031;-96
2021/01/13 18:52:24;;;;;;;1999.90;999.90;;;5.20;99.90;;;;;;6260337;23;20038;-96
2021/01/13 19:01:01;;;;;;;1999.90;999.90;;;5.20;99.90;;;;;;6254600;22;20028;-95
2021/01/13 19:12:04;;;;;;;1999.90;999.90;;;5.20;99.90;;;;;;6268183;22;20012;-96
2021/01/13 20:23:10;;;;;;;1999.90;999.90;;;5.30;99.90;;;;;;6271647;23;20027;-96
2021/01/13 22:43:17;;;;;;;1999.90;999.90;;;4.30;99.90;;;;;;6272497;23;20028;-96
2021/01/13 22:45:55;;;;;;;1999.90;999.90;;;4.30;99.90;;;;;;6271589;23;20028;-96
2021/01/13 22:48:50;;;;;;;1999.90;999.90;;;4.30;99.90;;;;;;6268366;23;20080;-96
2021/01/13 22:51:28;;;;;;;1999.90;999.90;;;4.30;99.90;;;;;;6271160;23;20020;-96
2021/01/13 22:57:03;;;;;;;1999.90;999.90;;;4.30;99.90;;;;;;6269110;23;20022;-96
2021/01/13 22:59:57;;;;;;;1999.90;999.90;;;4.30;99.90;;;;;;6269513;23;20024;-96
2021/01/13 23:02:46;;;;;;;1999.90;999.90;;;4.30;99.90;;;;;;6266601;23;20063;-96
2021/01/13 23:05:20;;;;;;;1999.90;999.90;;;4.20;99.90;;;;;;6252112;23;20016;-96
2021/01/13 23:07:48;;;;;;;1999.90;999.90;;;4.20;99.90;;;;;;6247116;23;20502;-96
2021/01/13 23:10:16;;;;;;;1999.90;999.90;;;4.20;99.90;;;;;;6247281;23;20019;-95
2021/01/13 23:12:44;;;;;;;1999.90;999.90;;;4.20;99.90;;;;;;6248369;23;20016;-95
2021/01/13 23:15:13;;;;;;;1999.90;999.90;;;4.20;99.90;;;;;;6247004;23;20451;-96